createdAt,value
2018-05-31T00:00:39.906Z,101520.80
2018-05-31T00:03:07.416Z,101521.09
2018-05-31T00:05:34.960Z,101517.38
2018-05-31T00:08:02.443Z,101530.80
2018-05-31T00:10:30.016Z,101526.67
2018-05-31T00:12:57.474Z,101523.06
2018-05-31T00:15:24.989Z,101528.31
2018-05-31T00:17:52.559Z,101535.70
2018-05-31T00:20:20.106Z,101541.45
2018-05-31T00:22:47.598Z,101533.08
2018-05-31T00:25:15.133Z,101544.14
2018-05-31T00:27:42.639Z,101542.97
2018-05-31T00:30:10.138Z,101540.53
2018-05-31T00:32:37.697Z,101544.09
2018-05-31T00:35:05.256Z,101539.92
2018-05-31T00:37:32.817Z,101546.05
2018-05-31T00:40:00.375Z,101545.95
2018-05-31T00:42:27.933Z,101546.23
2018-05-31T00:44:55.426Z,101542.17
2018-05-31T00:47:22.949Z,101517.63
2018-05-31T00:49:50.431Z,101544.16
2018-05-31T00:52:17.934Z,101548.07
2018-05-31T00:54:45.423Z,101543.26
2018-05-31T00:57:12.979Z,101558.25
2018-05-31T00:59:40.640Z,101557.58
2018-05-31T01:02:08.118Z,101555.42
2018-05-31T01:04:35.657Z,101554.03
2018-05-31T01:07:03.214Z,101557.58
2018-05-31T01:09:30.772Z,101564.77
2018-05-31T01:11:58.342Z,101577.39
2018-05-31T01:14:25.890Z,101574.08
2018-05-31T01:16:53.450Z,101575.54
2018-05-31T01:19:20.930Z,101577.70
2018-05-31T01:21:48.467Z,101575.77
2018-05-31T01:24:15.959Z,101572.38
2018-05-31T01:26:43.466Z,101574.19
2018-05-31T01:29:10.951Z,101574.38
2018-05-31T01:31:38.454Z,101575.08
2018-05-31T01:34:05.951Z,101572.86
2018-05-31T01:36:33.447Z,101577.78
2018-05-31T01:39:00.946Z,101577.81
2018-05-31T01:41:28.436Z,101573.77
2018-05-31T01:43:55.926Z,101573.33
2018-05-31T01:46:23.438Z,101571.69
2018-05-31T01:48:50.922Z,101572.53
2018-05-31T01:51:18.455Z,101572.77
2018-05-31T01:53:45.954Z,101566.44
2018-05-31T01:56:13.490Z,101573.25
2018-05-31T01:58:41.029Z,101572.69
2018-05-31T02:01:08.563Z,101566.33
2018-05-31T02:03:36.147Z,101569.41
2018-05-31T02:06:03.632Z,101569.36
2018-05-31T02:08:31.118Z,101564.88
2018-05-31T02:10:58.607Z,101566.63
2018-05-31T02:13:26.095Z,101565.61
2018-05-31T02:15:53.634Z,101562.25
2018-05-31T02:18:21.191Z,101562.48
2018-05-31T02:20:48.755Z,101568.52
2018-05-31T02:23:16.310Z,101568.23
2018-05-31T02:25:43.871Z,101564.69
2018-05-31T02:28:11.429Z,101563.94
2018-05-31T02:30:38.931Z,101569.72
2018-05-31T02:33:06.554Z,101572.40
2018-05-31T02:35:34.104Z,101573.70
2018-05-31T02:38:01.603Z,101579.37
2018-05-31T02:40:29.122Z,101573.73
2018-05-31T02:42:56.618Z,101573.30
2018-05-31T02:45:24.159Z,101576.92
2018-05-31T02:47:51.694Z,101569.36
2018-05-31T02:50:19.243Z,101576.48
2018-05-31T02:52:46.755Z,101575.61
2018-05-31T02:55:14.268Z,101575.61
2018-05-31T02:57:41.782Z,101577.50
2018-05-31T03:00:09.294Z,101573.59
2018-05-31T03:02:36.843Z,101574.56
2018-05-31T03:05:04.322Z,101576.84
2018-05-31T03:07:31.837Z,101576.13
2018-05-31T03:09:59.303Z,101570.02
2018-05-31T03:12:26.863Z,101574.46
2018-05-31T03:14:54.434Z,101572.58
2018-05-31T03:17:21.991Z,101579.27
2018-05-31T03:19:49.487Z,101572.63
2018-05-31T03:22:16.988Z,101577.35
2018-05-31T03:24:44.483Z,101586.97
2018-05-31T03:27:11.967Z,101577.13
2018-05-31T03:29:39.458Z,101585.41
2018-05-31T03:32:06.951Z,101580.42
2018-05-31T03:34:34.430Z,101576.92
2018-05-31T03:37:01.953Z,101580.09
2018-05-31T03:39:29.451Z,101588.59
2018-05-31T03:41:56.967Z,101579.08
2018-05-31T03:44:24.526Z,101583.81
2018-05-31T03:46:52.011Z,101587.83
2018-05-31T03:49:19.513Z,101589.75
2018-05-31T03:51:47.071Z,101596.18
2018-05-31T03:54:14.636Z,101598.67
2018-05-31T03:56:42.218Z,101601.63
2018-05-31T03:59:09.777Z,101604.72
2018-05-31T04:01:37.337Z,101595.95
2018-05-31T04:04:04.896Z,101602.14
2018-05-31T04:06:32.455Z,101607.59
2018-05-31T04:09:00.014Z,101611.75
2018-05-31T04:11:27.510Z,101609.83
2018-05-31T04:13:55.025Z,101608.25
2018-05-31T04:16:22.514Z,101609.19
2018-05-31T04:18:50.041Z,101611.27
2018-05-31T04:21:17.522Z,101611.83
2018-05-31T04:23:45.034Z,101604.45
2018-05-31T04:26:12.521Z,101613.97
2018-05-31T04:28:40.149Z,101607.49
2018-05-31T04:31:07.650Z,101606.16
2018-05-31T04:33:35.191Z,101607.83
2018-05-31T04:36:02.648Z,101608.64
2018-05-31T04:38:30.155Z,101602.76
2018-05-31T04:40:57.776Z,101605.33
2018-05-31T04:43:25.329Z,101606.08
2018-05-31T04:45:52.882Z,101606.76
2018-05-31T04:48:20.442Z,101605.19
2018-05-31T04:50:47.951Z,101600.73
2018-05-31T04:53:15.444Z,101598.73
2018-05-31T04:55:42.943Z,101600.11
2018-05-31T04:58:10.466Z,101609.94
2018-05-31T05:00:37.979Z,101606.94
2018-05-31T05:03:05.506Z,101605.75
2018-05-31T05:05:33.051Z,101612.27
2018-05-31T05:08:00.612Z,101621.89
2018-05-31T05:10:28.171Z,101571.20
2018-05-31T05:12:55.669Z,101614.35
2018-05-31T05:15:23.206Z,101621.14
2018-05-31T05:17:50.740Z,101623.77
2018-05-31T05:20:18.302Z,101626.77
2018-05-31T05:22:45.790Z,101625.03
2018-05-31T05:25:13.283Z,101636.15
2018-05-31T05:27:40.876Z,101638.39
2018-05-31T05:30:08.389Z,101648.13
2018-05-31T05:32:35.885Z,101643.30
2018-05-31T05:35:03.372Z,101636.05
2018-05-31T05:37:30.932Z,101632.12
2018-05-31T05:39:58.459Z,101635.06
2018-05-31T05:42:26.019Z,101636.16
2018-05-31T05:44:53.514Z,101643.52
2018-05-31T05:47:21.007Z,101636.08
2018-05-31T05:49:48.594Z,101642.34
2018-05-31T05:52:16.082Z,101643.27
2018-05-31T05:54:43.578Z,101638.66
2018-05-31T05:57:11.169Z,101645.02
2018-05-31T05:59:38.668Z,101637.58
2018-05-31T06:02:06.286Z,101635.94
2018-05-31T06:04:33.841Z,101636.26
2018-05-31T06:07:01.405Z,101635.45
2018-05-31T06:09:28.931Z,101641.80
2018-05-31T06:11:56.515Z,101637.61
2018-05-31T06:14:24.180Z,101646.51
2018-05-31T06:16:51.678Z,101640.05
2018-05-31T06:19:19.159Z,101639.32
2018-05-31T06:21:46.655Z,101638.06
2018-05-31T06:24:14.187Z,101637.08
2018-05-31T06:26:41.774Z,101643.16
2018-05-31T06:29:09.334Z,101642.41
2018-05-31T06:31:36.894Z,101641.64
2018-05-31T06:34:04.398Z,101643.23
2018-05-31T06:36:31.906Z,101643.97
2018-05-31T06:38:59.408Z,101648.75
2018-05-31T06:41:26.886Z,101647.53
2018-05-31T06:43:54.482Z,101643.91
2018-05-31T06:46:21.962Z,101648.81
2018-05-31T06:48:49.495Z,101648.16
2018-05-31T06:51:16.978Z,101638.68
2018-05-31T06:53:44.499Z,101638.52
2018-05-31T06:56:11.977Z,101636.02
2018-05-31T06:58:39.465Z,101642.73
2018-05-31T07:01:06.943Z,101646.51
2018-05-31T07:03:34.441Z,101636.91
2018-05-31T07:06:01.915Z,101637.43
2018-05-31T07:08:29.501Z,101640.23
2018-05-31T07:10:56.967Z,101633.66
2018-05-31T07:13:24.468Z,101635.16
2018-05-31T07:15:52.056Z,101642.77
2018-05-31T07:18:19.589Z,101637.88
2018-05-31T07:20:47.568Z,101636.55
2018-05-31T07:23:15.120Z,101630.06
2018-05-31T07:25:42.619Z,101634.85
2018-05-31T07:28:10.129Z,101631.59
2018-05-31T07:30:37.630Z,101633.17
2018-05-31T07:33:05.146Z,101627.60
2018-05-31T07:35:32.634Z,101632.51
2018-05-31T07:38:00.160Z,101636.12
2018-05-31T07:40:27.658Z,101632.02
2018-05-31T07:42:55.134Z,101646.34
2018-05-31T07:45:22.737Z,101640.66
2018-05-31T07:47:50.297Z,101638.05
2018-05-31T07:50:20.007Z,101635.27
2018-05-31T07:52:47.496Z,101626.02
2018-05-31T07:55:14.963Z,101635.80
2018-05-31T07:57:42.474Z,101634.83
2018-05-31T08:00:10.034Z,101624.75
2018-05-31T08:02:37.522Z,101639.65
2018-05-31T08:05:05.049Z,101635.94
2018-05-31T08:07:34.224Z,101634.23
2018-05-31T08:10:01.811Z,101625.63
2018-05-31T08:12:29.282Z,101628.07
2018-05-31T08:15:02.761Z,101623.04
2018-05-31T08:17:30.318Z,101617.58
2018-05-31T08:19:57.874Z,101620.45
2018-05-31T08:22:25.408Z,101618.97
2018-05-31T08:24:52.892Z,101616.22
2018-05-31T08:27:20.409Z,101617.72
2018-05-31T08:29:47.891Z,101620.48
2018-05-31T08:32:15.468Z,101621.41
2018-05-31T08:34:43.026Z,101625.55
2018-05-31T08:37:13.657Z,101622.16
2018-05-31T08:39:41.197Z,101628.30
2018-05-31T08:42:08.680Z,101628.08
2018-05-31T08:44:36.198Z,101630.08
2018-05-31T08:47:03.707Z,101624.94
2018-05-31T08:49:31.246Z,101633.66
2018-05-31T08:51:58.810Z,101632.09
2018-05-31T08:54:26.365Z,101625.32
2018-05-31T08:56:53.911Z,101622.48
2018-05-31T08:59:21.480Z,101618.89
2018-05-31T09:01:48.965Z,101620.19
2018-05-31T09:04:16.497Z,101613.75
2018-05-31T09:06:44.059Z,101612.67
2018-05-31T09:09:11.616Z,101606.83
2018-05-31T09:11:39.174Z,101594.94
2018-05-31T09:14:06.664Z,101605.61
2018-05-31T09:16:34.149Z,101602.16
2018-05-31T09:19:01.633Z,101595.69
2018-05-31T09:21:29.123Z,101593.23
2018-05-31T09:23:56.599Z,101598.34
2018-05-31T09:26:24.121Z,101604.22
2018-05-31T09:28:51.610Z,101591.74
2018-05-31T09:31:19.091Z,101594.09
2018-05-31T09:33:46.588Z,101583.96
2018-05-31T09:36:14.148Z,101590.70
2018-05-31T09:38:41.625Z,101597.70
2018-05-31T09:41:09.174Z,101600.09
2018-05-31T09:43:36.667Z,101597.67
2018-05-31T09:46:04.144Z,101596.38
2018-05-31T09:48:31.619Z,101597.20
2018-05-31T09:50:59.103Z,101593.47
2018-05-31T09:53:26.595Z,101588.33
2018-05-31T09:55:54.067Z,101587.44
2018-05-31T09:58:21.614Z,101583.80
2018-05-31T10:00:49.124Z,101587.12
2018-05-31T10:03:16.686Z,101589.73
2018-05-31T10:05:44.240Z,101587.22
2018-05-31T10:08:11.799Z,101578.84
2018-05-31T10:10:39.302Z,101578.70
2018-05-31T10:13:06.816Z,101577.77
2018-05-31T10:15:34.291Z,101574.22
2018-05-31T10:18:01.831Z,101571.53
2018-05-31T10:20:29.346Z,101579.43
2018-05-31T10:22:56.827Z,101571.70
2018-05-31T10:25:24.323Z,101560.08
2018-05-31T10:27:51.805Z,101558.14
2018-05-31T10:30:19.320Z,101559.50
2018-05-31T10:32:46.800Z,101557.30
2018-05-31T10:35:14.334Z,101554.39
2018-05-31T10:37:41.825Z,101553.80
2018-05-31T10:40:09.303Z,101550.56
2018-05-31T10:42:36.827Z,101544.70
2018-05-31T10:45:05.080Z,101548.60
2018-05-31T10:47:32.632Z,101545.03
2018-05-31T10:50:00.202Z,101539.99
2018-05-31T10:52:27.679Z,101541.58
2018-05-31T10:54:55.213Z,101544.59
2018-05-31T10:57:22.772Z,101545.44
2018-05-31T10:59:50.243Z,101539.75
2018-05-31T11:02:17.711Z,101543.94
2018-05-31T11:04:45.244Z,101545.67
2018-05-31T11:07:12.803Z,101539.19
2018-05-31T11:09:40.362Z,101540.32
2018-05-31T11:12:07.921Z,101532.07
2018-05-31T11:14:35.408Z,101532.56
2018-05-31T11:17:03.960Z,101530.58
2018-05-31T11:19:31.455Z,101525.30
2018-05-31T11:21:58.943Z,101535.09
2018-05-31T11:24:27.175Z,101525.05
2018-05-31T11:26:54.809Z,101523.30
2018-05-31T11:29:22.370Z,101519.16
2018-05-31T11:31:49.923Z,101522.84
2018-05-31T11:34:17.409Z,101523.31
2018-05-31T11:36:44.906Z,101530.11
2018-05-31T11:39:12.398Z,101525.70
2018-05-31T11:41:39.984Z,101517.72
2018-05-31T11:44:07.458Z,101519.13
2018-05-31T11:46:34.942Z,101516.66
2018-05-31T11:49:02.435Z,101512.66
2018-05-31T11:51:29.931Z,101515.93
2018-05-31T11:53:57.446Z,101513.72
2018-05-31T11:56:25.589Z,101504.19
2018-05-31T11:58:53.075Z,101516.08
2018-05-31T12:01:20.550Z,101508.81
2018-05-31T12:03:48.038Z,101506.38
2018-05-31T12:06:15.542Z,101513.81
2018-05-31T12:08:43.023Z,101506.71
2018-05-31T12:11:10.508Z,101505.47
2018-05-31T12:13:38.021Z,101497.63
2018-05-31T12:16:05.496Z,101496.41
2018-05-31T12:18:33.036Z,101486.66
2018-05-31T12:21:00.510Z,101492.11
2018-05-31T12:23:27.998Z,101485.58
2018-05-31T12:25:55.496Z,101488.87
2018-05-31T12:28:23.070Z,101480.52
2018-05-31T12:30:50.543Z,101483.31
2018-05-31T12:33:18.081Z,101481.37
2018-05-31T12:35:45.641Z,101477.39
2018-05-31T12:38:13.301Z,101481.55
2018-05-31T12:40:40.803Z,101477.73
2018-05-31T12:43:08.288Z,101476.13
2018-05-31T12:45:35.885Z,101470.63
2018-05-31T12:48:03.374Z,101468.88
2018-05-31T12:50:30.900Z,101478.88
2018-05-31T12:52:58.454Z,101465.66
2018-05-31T12:55:25.943Z,101469.59
2018-05-31T12:57:53.488Z,101458.30
2018-05-31T13:00:20.974Z,101464.13
2018-05-31T13:02:48.484Z,101469.77
2018-05-31T13:05:16.040Z,101459.84
2018-05-31T13:07:43.595Z,101460.09
2018-05-31T13:10:11.088Z,101453.96
2018-05-31T13:12:38.575Z,101453.41
2018-05-31T13:15:06.050Z,101461.52
2018-05-31T13:17:33.547Z,101465.16
2018-05-31T13:20:01.035Z,101450.08
2018-05-31T13:22:28.523Z,101449.39
2018-05-31T13:24:56.102Z,101446.14
2018-05-31T13:27:23.663Z,101442.81
2018-05-31T13:29:51.146Z,101437.00
2018-05-31T13:32:18.635Z,101449.12
2018-05-31T13:34:46.132Z,101445.32
2018-05-31T13:37:13.619Z,101441.22
2018-05-31T13:39:41.140Z,101436.13
2018-05-31T13:42:09.265Z,101439.13
2018-05-31T13:44:36.813Z,101440.50
2018-05-31T13:47:04.305Z,101436.47
2018-05-31T13:49:31.894Z,101428.72
2018-05-31T13:51:59.382Z,101435.41
2018-05-31T13:54:26.910Z,101431.46
2018-05-31T13:56:54.463Z,101425.48
2018-05-31T13:59:21.999Z,101424.86
2018-05-31T14:01:49.586Z,101425.55
2018-05-31T14:04:17.058Z,101422.28
2018-05-31T14:06:44.602Z,101416.94
2018-05-31T14:09:12.091Z,101418.39
2018-05-31T14:11:39.558Z,101418.47
2018-05-31T14:14:07.035Z,101417.20
2018-05-31T14:16:34.647Z,101414.78
2018-05-31T14:19:02.133Z,101415.19
2018-05-31T14:21:29.608Z,101407.63
2018-05-31T14:23:57.187Z,101403.80
2018-05-31T14:26:26.367Z,101407.47
2018-05-31T14:28:53.964Z,101404.52
2018-05-31T14:31:22.679Z,101404.71
2018-05-31T14:33:50.207Z,101399.21
2018-05-31T14:36:17.681Z,101399.80
2018-05-31T14:38:45.170Z,101394.49
2018-05-31T14:41:12.657Z,101395.97
2018-05-31T14:43:40.158Z,101396.55
2018-05-31T14:46:08.723Z,101385.05
2018-05-31T14:48:36.380Z,101391.91
2018-05-31T14:51:03.871Z,101392.73
2018-05-31T14:53:31.498Z,101396.67
2018-05-31T14:56:01.419Z,101391.57
2018-05-31T14:58:29.041Z,101392.86
2018-05-31T15:00:56.655Z,101388.69
2018-05-31T15:03:24.139Z,101384.67
2018-05-31T15:05:53.334Z,101384.40
2018-05-31T15:08:20.843Z,101385.22
2018-05-31T15:10:48.404Z,101378.47
2018-05-31T15:13:16.066Z,101381.36
2018-05-31T15:15:43.623Z,101373.44
2018-05-31T15:18:11.120Z,101369.01
2018-05-31T15:20:38.653Z,101366.91
2018-05-31T15:23:06.146Z,101375.50
2018-05-31T15:25:33.655Z,101367.21
2018-05-31T15:28:01.126Z,101365.30
2018-05-31T15:30:28.670Z,101366.30
2018-05-31T15:32:56.229Z,101366.42
2018-05-31T15:35:23.735Z,101362.17
2018-05-31T15:37:51.262Z,101357.75
2018-05-31T15:40:18.757Z,101352.05
2018-05-31T15:42:46.246Z,101353.91
2018-05-31T15:45:13.818Z,101349.70
2018-05-31T15:47:41.382Z,101346.64
2018-05-31T15:50:08.936Z,101353.53
2018-05-31T15:52:36.497Z,101347.50
2018-05-31T15:55:04.035Z,101336.66
2018-05-31T15:57:31.529Z,101346.02
2018-05-31T15:59:59.069Z,101340.25
2018-05-31T16:02:26.628Z,101338.00
2018-05-31T16:04:54.144Z,101337.09
2018-05-31T16:07:21.653Z,101340.48
2018-05-31T16:09:49.197Z,101330.62
2018-05-31T16:12:16.673Z,101333.00
2018-05-31T16:14:44.217Z,101327.67
2018-05-31T16:17:11.775Z,101326.73
2018-05-31T16:19:39.268Z,101320.19
2018-05-31T16:22:06.920Z,101318.00
2018-05-31T16:24:34.391Z,101315.89
2018-05-31T16:27:01.865Z,101312.49
2018-05-31T16:29:29.359Z,101318.09
2018-05-31T16:31:56.865Z,101313.73
2018-05-31T16:34:24.340Z,101311.94
2018-05-31T16:36:51.827Z,101307.64
2018-05-31T16:39:19.307Z,101303.23
2018-05-31T16:41:46.782Z,101303.84
2018-05-31T16:44:14.315Z,101297.94
2018-05-31T16:46:41.795Z,101291.41
2018-05-31T16:49:09.327Z,101290.17
2018-05-31T16:51:36.823Z,101293.30
2018-05-31T16:54:04.338Z,101284.53
2018-05-31T16:56:31.818Z,101292.13
2018-05-31T16:58:59.303Z,101288.30
2018-05-31T17:01:26.809Z,101281.30
2018-05-31T17:03:54.279Z,101291.17
2018-05-31T17:06:21.805Z,101294.56
2018-05-31T17:08:49.292Z,101284.95
2018-05-31T17:11:16.766Z,101283.22
2018-05-31T17:13:44.279Z,101288.03
2018-05-31T17:16:11.758Z,101281.17
2018-05-31T17:18:39.264Z,101284.36
2018-05-31T17:21:06.770Z,101279.28
2018-05-31T17:23:34.244Z,101280.61
2018-05-31T17:26:01.719Z,101275.78
2018-05-31T17:28:29.225Z,101278.94
2018-05-31T17:30:56.707Z,101278.31
2018-05-31T17:33:24.257Z,101275.97
2018-05-31T17:35:51.754Z,101270.52
2018-05-31T17:38:19.298Z,101275.10
2018-05-31T17:40:46.831Z,101278.95
2018-05-31T17:43:14.330Z,101278.33
2018-05-31T17:45:41.807Z,101281.33
2018-05-31T17:48:09.288Z,101290.05
2018-05-31T17:50:36.867Z,101289.02
2018-05-31T17:53:04.351Z,101288.21
2018-05-31T17:55:31.838Z,101287.70
2018-05-31T17:57:59.328Z,101290.62
2018-05-31T18:00:26.811Z,101286.11
2018-05-31T18:02:54.360Z,101292.59
2018-05-31T18:05:21.874Z,101292.16
2018-05-31T18:07:49.449Z,101291.48
2018-05-31T18:10:18.664Z,101296.12
2018-05-31T18:12:46.735Z,101301.48
2018-05-31T18:15:15.492Z,101303.23
2018-05-31T18:17:43.016Z,101298.57
2018-05-31T18:20:10.641Z,101302.14
2018-05-31T18:22:38.202Z,101293.73
2018-05-31T18:25:05.683Z,101294.57
2018-05-31T18:27:34.619Z,101299.38
2018-05-31T18:30:02.212Z,101300.70
2018-05-31T18:32:29.703Z,101295.31
2018-05-31T18:34:57.221Z,101301.30
2018-05-31T18:37:29.698Z,101309.27
2018-05-31T18:39:57.219Z,101302.81
2018-05-31T18:42:24.731Z,101298.89
2018-05-31T18:44:54.217Z,101304.25
2018-05-31T18:47:21.769Z,101302.48
2018-05-31T18:49:49.305Z,101302.77
2018-05-31T18:52:16.893Z,101303.12
2018-05-31T18:54:45.186Z,101310.52
2018-05-31T18:57:12.959Z,101309.47
2018-05-31T18:59:40.453Z,101316.34
2018-05-31T19:02:07.947Z,101314.97
2018-05-31T19:04:35.454Z,101320.39
2018-05-31T19:07:03.886Z,101327.70
2018-05-31T19:09:37.384Z,101327.73
2018-05-31T19:12:04.943Z,101325.05
2018-05-31T19:14:32.503Z,101330.41
2018-05-31T19:17:00.063Z,101329.98
2018-05-31T19:19:33.147Z,101335.30
2018-05-31T19:22:00.639Z,101335.81
2018-05-31T19:24:33.799Z,101337.52
2018-05-31T19:27:01.366Z,101334.38
2018-05-31T19:29:28.922Z,101335.52
2018-05-31T19:31:56.415Z,101340.18
2018-05-31T19:34:23.924Z,101325.70
2018-05-31T19:36:57.224Z,101321.08
2018-05-31T19:39:24.784Z,101342.63
2018-05-31T19:41:52.340Z,101341.20
2018-05-31T19:44:25.360Z,101346.87
2018-05-31T19:46:52.885Z,101345.63
2018-05-31T19:49:20.356Z,101354.36
2018-05-31T19:51:53.259Z,101350.58
2018-05-31T19:54:20.783Z,101359.00
2018-05-31T19:56:48.273Z,101360.89
2018-05-31T19:59:21.487Z,101365.13
2018-05-31T20:01:54.542Z,101371.23
2018-05-31T20:04:22.043Z,101372.82
2018-05-31T20:06:49.530Z,101377.95
2018-05-31T20:09:17.027Z,101375.05
2018-05-31T20:11:44.541Z,101381.01
2018-05-31T20:14:12.110Z,101384.18
2018-05-31T20:16:39.669Z,101381.20
2018-05-31T20:19:07.230Z,101390.10
2018-05-31T20:21:34.747Z,101385.14
2018-05-31T20:24:02.243Z,101387.62
2018-05-31T20:26:29.871Z,101377.89
2018-05-31T20:28:57.360Z,101376.62
2018-05-31T20:31:24.920Z,101378.23
2018-05-31T20:33:52.478Z,101377.10
2018-05-31T20:36:20.038Z,101375.02
2018-05-31T20:38:47.561Z,101379.39
2018-05-31T20:41:15.043Z,101378.78
2018-05-31T20:43:42.525Z,101377.88
2018-05-31T20:46:10.055Z,101376.81
2018-05-31T20:48:37.559Z,101383.78
2018-05-31T20:51:08.076Z,101378.75
2018-05-31T20:53:35.616Z,101387.59
2018-05-31T20:56:03.955Z,101385.47
2018-05-31T20:58:31.435Z,101380.84
2018-05-31T21:00:59.007Z,101385.36
2018-05-31T21:03:26.564Z,101387.58
2018-05-31T21:05:54.048Z,101386.88
2018-05-31T21:08:21.530Z,101382.55
2018-05-31T21:10:49.019Z,101384.16
2018-05-31T21:13:16.494Z,101372.91
2018-05-31T21:15:43.977Z,101387.47
2018-05-31T21:18:11.458Z,101394.45
2018-05-31T21:20:38.975Z,101404.64
2018-05-31T21:23:06.522Z,101402.26
2018-05-31T21:25:34.082Z,101400.61
2018-05-31T21:28:01.564Z,101404.40
2018-05-31T21:30:29.097Z,101413.93
2018-05-31T21:32:56.656Z,101410.55
2018-05-31T21:35:24.222Z,101413.27
2018-05-31T21:37:52.536Z,101415.66
2018-05-31T21:40:20.029Z,101413.48
2018-05-31T21:42:47.554Z,101413.61
2018-05-31T21:45:15.026Z,101423.75
2018-05-31T21:47:42.510Z,101421.02
2018-05-31T21:50:09.990Z,101420.27
2018-05-31T21:52:37.594Z,101437.19
2018-05-31T21:55:05.036Z,101433.31
2018-05-31T21:57:32.552Z,101430.02
2018-05-31T22:00:00.111Z,101426.86
2018-05-31T22:02:27.594Z,101427.89
2018-05-31T22:04:55.128Z,101424.02
2018-05-31T22:07:22.683Z,101419.56
2018-05-31T22:09:50.243Z,101426.31
2018-05-31T22:12:17.728Z,101426.39
2018-05-31T22:14:45.258Z,101429.64
2018-05-31T22:17:12.818Z,101426.26
2018-05-31T22:19:40.377Z,101433.22
2018-05-31T22:22:07.946Z,101426.18
2018-05-31T22:24:35.494Z,101444.89
2018-05-31T22:27:03.053Z,101440.17
2018-05-31T22:29:30.608Z,101439.70
2018-05-31T22:31:58.157Z,101438.05
2018-05-31T22:34:25.667Z,101440.44
2018-05-31T22:36:53.201Z,101442.95
2018-05-31T22:39:20.745Z,101442.36
2018-05-31T22:41:48.304Z,101447.89
2018-05-31T22:44:15.795Z,101450.03
2018-05-31T22:46:43.323Z,101447.23
2018-05-31T22:49:10.878Z,101441.26
2018-05-31T22:51:38.439Z,101451.91
2018-05-31T22:54:05.931Z,101452.08
2018-05-31T22:56:33.421Z,101448.92
2018-05-31T22:59:01.011Z,101438.01
2018-05-31T23:01:28.570Z,101441.41
2018-05-31T23:03:56.130Z,101447.91
2018-05-31T23:06:23.618Z,101442.36
2018-05-31T23:08:51.144Z,101443.11
2018-05-31T23:11:18.627Z,101440.12
2018-05-31T23:13:46.102Z,101440.59
2018-05-31T23:16:13.618Z,101444.84
2018-05-31T23:18:41.102Z,101440.55
2018-05-31T23:21:08.575Z,101445.91
2018-05-31T23:23:36.079Z,101449.25
2018-05-31T23:26:03.554Z,101446.81
2018-05-31T23:28:31.038Z,101448.54
2018-05-31T23:30:58.560Z,101442.44
2018-05-31T23:33:26.118Z,101441.64
2018-05-31T23:35:53.595Z,101447.78
2018-05-31T23:38:21.193Z,101449.36
2018-05-31T23:40:48.686Z,101451.20
2018-05-31T23:43:16.300Z,101455.22
2018-05-31T23:45:43.813Z,101453.68
2018-05-31T23:48:11.372Z,101457.02
2018-05-31T23:50:38.928Z,101459.11
2018-05-31T23:53:06.497Z,101465.63
2018-05-31T23:55:33.994Z,101467.44
2018-05-31T23:58:01.503Z,101464.55
